sensor_id;sensor_type;location;lat;lon;timestamp;P1;durP1;ratioP1;P2;durP2;ratioP2
46589;SDS011;32313;48.722;9.362;2023-11-22T00:00:08;24.20;;;20.10;;
46589;SDS011;32313;48.722;9.362;2023-11-22T00:02:35;27.67;;;19.93;;
46589;SDS011;32313;48.722;9.362;2023-11-22T00:05:00;23.23;;;19.43;;
46589;SDS011;32313;48.722;9.362;2023-11-22T00:07:26;30.30;;;20.43;;
46589;SDS011;32313;48.722;9.362;2023-11-22T00:09:55;25.80;;;19.83;;
46589;SDS011;32313;48.722;9.362;2023-11-22T00:12:21;25.23;;;18.67;;
46589;SDS011;32313;48.722;9.362;2023-11-22T00:14:48;28.03;;;20.37;;
46589;SDS011;32313;48.722;9.362;2023-11-22T00:17:14;23.77;;;19.60;;
46589;SDS011;32313;48.722;9.362;2023-11-22T00:19:42;26.70;;;20.27;;
46589;SDS011;32313;48.722;9.362;2023-11-22T00:22:10;24.93;;;18.07;;
46589;SDS011;32313;48.722;9.362;2023-11-22T00:24:40;24.47;;;19.27;;
46589;SDS011;32313;48.722;9.362;2023-11-22T00:27:06;20.87;;;17.53;;
46589;SDS011;32313;48.722;9.362;2023-11-22T00:29:33;22.50;;;17.57;;
46589;SDS011;32313;48.722;9.362;2023-11-22T00:31:58;15.23;;;13.60;;
46589;SDS011;32313;48.722;9.362;2023-11-22T00:34:25;14.07;;;11.97;;
46589;SDS011;32313;48.722;9.362;2023-11-22T00:36:51;11.63;;;10.47;;
46589;SDS011;32313;48.722;9.362;2023-11-22T00:39:17;10.67;;;9.67;;
46589;SDS011;32313;48.722;9.362;2023-11-22T00:41:43;9.97;;;9.17;;
46589;SDS011;32313;48.722;9.362;2023-11-22T00:44:10;10.60;;;9.67;;
46589;SDS011;32313;48.722;9.362;2023-11-22T00:46:36;10.30;;;9.50;;
46589;SDS011;32313;48.722;9.362;2023-11-22T00:49:05;10.27;;;9.50;;
46589;SDS011;32313;48.722;9.362;2023-11-22T00:51:32;10.23;;;9.43;;
46589;SDS011;32313;48.722;9.362;2023-11-22T00:53:58;9.90;;;9.13;;
46589;SDS011;32313;48.722;9.362;2023-11-22T00:56:24;10.07;;;9.30;;
46589;SDS011;32313;48.722;9.362;2023-11-22T00:58:50;10.17;;;9.27;;
46589;SDS011;32313;48.722;9.362;2023-11-22T01:01:18;9.97;;;9.17;;
46589;SDS011;32313;48.722;9.362;2023-11-22T01:03:46;10.53;;;9.73;;
46589;SDS011;32313;48.722;9.362;2023-11-22T01:06:13;10.17;;;9.27;;
46589;SDS011;32313;48.722;9.362;2023-11-22T01:08:39;9.23;;;8.53;;
46589;SDS011;32313;48.722;9.362;2023-11-22T01:11:04;9.70;;;8.97;;
46589;SDS011;32313;48.722;9.362;2023-11-22T01:13:33;10.60;;;9.60;;
46589;SDS011;32313;48.722;9.362;2023-11-22T01:16:06;11.33;;;10.33;;
46589;SDS011;32313;48.722;9.362;2023-11-22T01:18:32;11.00;;;10.07;;
46589;SDS011;32313;48.722;9.362;2023-11-22T01:20:58;12.83;;;11.73;;
46589;SDS011;32313;48.722;9.362;2023-11-22T01:23:23;12.23;;;11.10;;
46589;SDS011;32313;48.722;9.362;2023-11-22T01:25:49;11.73;;;10.73;;
46589;SDS011;32313;48.722;9.362;2023-11-22T01:28:15;11.60;;;10.60;;
46589;SDS011;32313;48.722;9.362;2023-11-22T01:30:42;12.77;;;11.77;;
46589;SDS011;32313;48.722;9.362;2023-11-22T01:33:10;12.80;;;11.70;;
46589;SDS011;32313;48.722;9.362;2023-11-22T01:35:40;13.20;;;12.00;;
46589;SDS011;32313;48.722;9.362;2023-11-22T01:38:05;12.73;;;11.63;;
46589;SDS011;32313;48.722;9.362;2023-11-22T01:40:31;12.43;;;11.27;;
46589;SDS011;32313;48.722;9.362;2023-11-22T01:43:00;11.80;;;10.80;;
46589;SDS011;32313;48.722;9.362;2023-11-22T01:45:27;13.23;;;12.03;;
46589;SDS011;32313;48.722;9.362;2023-11-22T01:47:53;12.53;;;11.43;;
46589;SDS011;32313;48.722;9.362;2023-11-22T01:50:20;12.70;;;11.50;;
46589;SDS011;32313;48.722;9.362;2023-11-22T01:52:46;12.63;;;11.63;;
46589;SDS011;32313;48.722;9.362;2023-11-22T01:55:12;12.57;;;11.47;;
46589;SDS011;32313;48.722;9.362;2023-11-22T01:57:39;14.20;;;12.80;;
46589;SDS011;32313;48.722;9.362;2023-11-22T02:00:05;13.00;;;12.00;;
46589;SDS011;32313;48.722;9.362;2023-11-22T02:02:40;13.27;;;12.17;;
46589;SDS011;32313;48.722;9.362;2023-11-22T02:05:07;12.67;;;11.57;;
46589;SDS011;32313;48.722;9.362;2023-11-22T02:07:33;12.87;;;11.77;;
46589;SDS011;32313;48.722;9.362;2023-11-22T02:09:59;12.37;;;11.27;;
46589;SDS011;32313;48.722;9.362;2023-11-22T02:12:25;11.80;;;10.80;;
46589;SDS011;32313;48.722;9.362;2023-11-22T02:14:51;12.63;;;11.40;;
46589;SDS011;32313;48.722;9.362;2023-11-22T02:17:16;12.70;;;11.60;;
46589;SDS011;32313;48.722;9.362;2023-11-22T02:19:42;11.17;;;10.27;;
46589;SDS011;32313;48.722;9.362;2023-11-22T02:22:11;12.03;;;10.93;;
46589;SDS011;32313;48.722;9.362;2023-11-22T02:24:37;12.67;;;11.57;;
46589;SDS011;32313;48.722;9.362;2023-11-22T02:27:03;12.43;;;11.50;;
46589;SDS011;32313;48.722;9.362;2023-11-22T02:29:29;12.80;;;11.70;;
46589;SDS011;32313;48.722;9.362;2023-11-22T02:31:54;12.37;;;11.30;;
46589;SDS011;32313;48.722;9.362;2023-11-22T02:34:20;11.67;;;10.67;;
46589;SDS011;32313;48.722;9.362;2023-11-22T02:36:46;11.30;;;10.40;;
46589;SDS011;32313;48.722;9.362;2023-11-22T02:39:12;10.80;;;9.90;;
46589;SDS011;32313;48.722;9.362;2023-11-22T02:41:39;12.03;;;10.50;;
46589;SDS011;32313;48.722;9.362;2023-11-22T02:44:05;11.37;;;10.37;;
46589;SDS011;32313;48.722;9.362;2023-11-22T02:46:33;11.13;;;10.23;;
46589;SDS011;32313;48.722;9.362;2023-11-22T02:48:59;10.33;;;9.53;;
46589;SDS011;32313;48.722;9.362;2023-11-22T02:51:25;12.30;;;11.37;;
46589;SDS011;32313;48.722;9.362;2023-11-22T02:53:51;13.10;;;11.90;;
46589;SDS011;32313;48.722;9.362;2023-11-22T02:56:17;11.37;;;10.47;;
46589;SDS011;32313;48.722;9.362;2023-11-22T02:58:43;11.83;;;10.83;;
46589;SDS011;32313;48.722;9.362;2023-11-22T03:01:09;11.93;;;10.93;;
46589;SDS011;32313;48.722;9.362;2023-11-22T03:03:34;12.37;;;11.27;;
46589;SDS011;32313;48.722;9.362;2023-11-22T03:06:00;12.93;;;11.93;;
46589;SDS011;32313;48.722;9.362;2023-11-22T03:08:26;13.70;;;12.50;;
46589;SDS011;32313;48.722;9.362;2023-11-22T03:10:53;13.60;;;12.50;;
46589;SDS011;32313;48.722;9.362;2023-11-22T03:13:18;14.17;;;12.87;;
46589;SDS011;32313;48.722;9.362;2023-11-22T03:15:44;12.47;;;11.37;;
46589;SDS011;32313;48.722;9.362;2023-11-22T03:18:10;13.03;;;11.93;;
46589;SDS011;32313;48.722;9.362;2023-11-22T03:20:36;12.53;;;11.53;;
46589;SDS011;32313;48.722;9.362;2023-11-22T03:23:03;13.07;;;12.07;;
46589;SDS011;32313;48.722;9.362;2023-11-22T03:25:29;14.13;;;12.93;;
46589;SDS011;32313;48.722;9.362;2023-11-22T03:27:56;13.67;;;12.33;;
46589;SDS011;32313;48.722;9.362;2023-11-22T03:30:21;12.77;;;11.57;;
46589;SDS011;32313;48.722;9.362;2023-11-22T03:32:48;13.60;;;12.50;;
46589;SDS011;32313;48.722;9.362;2023-11-22T03:35:15;12.10;;;11.10;;
46589;SDS011;32313;48.722;9.362;2023-11-22T03:37:42;12.70;;;11.60;;
46589;SDS011;32313;48.722;9.362;2023-11-22T03:40:08;12.03;;;10.93;;
46589;SDS011;32313;48.722;9.362;2023-11-22T03:42:36;12.37;;;11.37;;
46589;SDS011;32313;48.722;9.362;2023-11-22T03:45:04;11.87;;;10.87;;
46589;SDS011;32313;48.722;9.362;2023-11-22T03:47:31;11.07;;;10.17;;
46589;SDS011;32313;48.722;9.362;2023-11-22T03:49:58;11.80;;;10.83;;
46589;SDS011;32313;48.722;9.362;2023-11-22T03:52:24;11.50;;;10.60;;
46589;SDS011;32313;48.722;9.362;2023-11-22T03:54:52;11.00;;;10.10;;
46589;SDS011;32313;48.722;9.362;2023-11-22T03:57:17;12.30;;;11.30;;
46589;SDS011;32313;48.722;9.362;2023-11-22T03:59:43;11.93;;;10.93;;
46589;SDS011;32313;48.722;9.362;2023-11-22T04:02:09;12.13;;;11.17;;
46589;SDS011;32313;48.722;9.362;2023-11-22T04:04:35;11.43;;;10.53;;
46589;SDS011;32313;48.722;9.362;2023-11-22T04:07:02;11.33;;;10.53;;
46589;SDS011;32313;48.722;9.362;2023-11-22T04:09:28;12.10;;;11.10;;
46589;SDS011;32313;48.722;9.362;2023-11-22T04:11:54;11.43;;;10.53;;
46589;SDS011;32313;48.722;9.362;2023-11-22T04:14:20;10.63;;;9.83;;
46589;SDS011;32313;48.722;9.362;2023-11-22T04:16:46;10.87;;;9.87;;
46589;SDS011;32313;48.722;9.362;2023-11-22T04:19:12;11.43;;;10.43;;
46589;SDS011;32313;48.722;9.362;2023-11-22T04:21:38;11.10;;;10.20;;
46589;SDS011;32313;48.722;9.362;2023-11-22T04:24:04;11.57;;;10.53;;
46589;SDS011;32313;48.722;9.362;2023-11-22T04:26:30;12.73;;;11.63;;
46589;SDS011;32313;48.722;9.362;2023-11-22T04:28:56;11.73;;;10.73;;
46589;SDS011;32313;48.722;9.362;2023-11-22T04:31:23;11.60;;;10.60;;
46589;SDS011;32313;48.722;9.362;2023-11-22T04:33:49;11.70;;;10.70;;
46589;SDS011;32313;48.722;9.362;2023-11-22T04:36:15;11.23;;;10.13;;
46589;SDS011;32313;48.722;9.362;2023-11-22T04:38:41;11.40;;;10.50;;
46589;SDS011;32313;48.722;9.362;2023-11-22T04:41:07;10.80;;;9.90;;
46589;SDS011;32313;48.722;9.362;2023-11-22T04:43:33;11.73;;;10.80;;
46589;SDS011;32313;48.722;9.362;2023-11-22T04:45:59;12.13;;;11.17;;
46589;SDS011;32313;48.722;9.362;2023-11-22T04:48:24;11.67;;;10.77;;
46589;SDS011;32313;48.722;9.362;2023-11-22T04:50:50;12.20;;;11.20;;
46589;SDS011;32313;48.722;9.362;2023-11-22T04:53:16;10.60;;;9.80;;
46589;SDS011;32313;48.722;9.362;2023-11-22T04:55:42;10.57;;;9.77;;
46589;SDS011;32313;48.722;9.362;2023-11-22T04:58:08;11.13;;;10.17;;
46589;SDS011;32313;48.722;9.362;2023-11-22T05:00:33;12.03;;;11.03;;
46589;SDS011;32313;48.722;9.362;2023-11-22T05:02:59;11.23;;;10.23;;
46589;SDS011;32313;48.722;9.362;2023-11-22T05:05:25;12.10;;;11.00;;
46589;SDS011;32313;48.722;9.362;2023-11-22T05:07:50;11.47;;;10.50;;
46589;SDS011;32313;48.722;9.362;2023-11-22T05:10:16;11.43;;;10.43;;
46589;SDS011;32313;48.722;9.362;2023-11-22T05:12:43;10.73;;;9.73;;
46589;SDS011;32313;48.722;9.362;2023-11-22T05:15:09;11.20;;;10.30;;
46589;SDS011;32313;48.722;9.362;2023-11-22T05:17:35;11.30;;;10.50;;
46589;SDS011;32313;48.722;9.362;2023-11-22T05:20:01;11.70;;;10.90;;
46589;SDS011;32313;48.722;9.362;2023-11-22T05:22:27;11.77;;;10.87;;
46589;SDS011;32313;48.722;9.362;2023-11-22T05:24:53;11.80;;;10.80;;
46589;SDS011;32313;48.722;9.362;2023-11-22T05:27:18;12.10;;;11.10;;
46589;SDS011;32313;48.722;9.362;2023-11-22T05:29:44;11.87;;;10.97;;
46589;SDS011;32313;48.722;9.362;2023-11-22T05:32:09;12.03;;;11.03;;
46589;SDS011;32313;48.722;9.362;2023-11-22T05:34:36;12.50;;;11.40;;
46589;SDS011;32313;48.722;9.362;2023-11-22T05:37:02;12.03;;;11.13;;
46589;SDS011;32313;48.722;9.362;2023-11-22T05:39:28;11.60;;;10.60;;
46589;SDS011;32313;48.722;9.362;2023-11-22T05:41:54;11.17;;;10.27;;
46589;SDS011;32313;48.722;9.362;2023-11-22T05:44:19;11.70;;;10.70;;
46589;SDS011;32313;48.722;9.362;2023-11-22T05:46:45;12.27;;;11.27;;
46589;SDS011;32313;48.722;9.362;2023-11-22T05:49:11;10.83;;;10.00;;
46589;SDS011;32313;48.722;9.362;2023-11-22T05:51:36;11.27;;;10.37;;
46589;SDS011;32313;48.722;9.362;2023-11-22T05:54:03;12.07;;;11.07;;
46589;SDS011;32313;48.722;9.362;2023-11-22T05:56:29;12.97;;;11.87;;
46589;SDS011;32313;48.722;9.362;2023-11-22T05:58:55;11.27;;;10.47;;
46589;SDS011;32313;48.722;9.362;2023-11-22T06:01:22;11.13;;;10.23;;
46589;SDS011;32313;48.722;9.362;2023-11-22T06:03:47;11.60;;;10.70;;
46589;SDS011;32313;48.722;9.362;2023-11-22T06:06:13;11.60;;;10.70;;
46589;SDS011;32313;48.722;9.362;2023-11-22T06:08:39;11.83;;;10.87;;
46589;SDS011;32313;48.722;9.362;2023-11-22T06:11:05;12.43;;;11.53;;
46589;SDS011;32313;48.722;9.362;2023-11-22T06:13:32;12.20;;;11.30;;
46589;SDS011;32313;48.722;9.362;2023-11-22T06:15:57;12.23;;;11.33;;
46589;SDS011;32313;48.722;9.362;2023-11-22T06:18:23;11.60;;;10.80;;
46589;SDS011;32313;48.722;9.362;2023-11-22T06:20:55;11.13;;;10.33;;
46589;SDS011;32313;48.722;9.362;2023-11-22T06:23:21;11.83;;;10.83;;
46589;SDS011;32313;48.722;9.362;2023-11-22T06:25:47;12.80;;;10.57;;
46589;SDS011;32313;48.722;9.362;2023-11-22T06:28:13;12.77;;;11.77;;
46589;SDS011;32313;48.722;9.362;2023-11-22T06:30:39;11.10;;;10.20;;
46589;SDS011;32313;48.722;9.362;2023-11-22T06:33:04;12.27;;;11.40;;
46589;SDS011;32313;48.722;9.362;2023-11-22T06:35:30;12.20;;;11.30;;
46589;SDS011;32313;48.722;9.362;2023-11-22T06:37:56;11.63;;;10.63;;
46589;SDS011;32313;48.722;9.362;2023-11-22T06:40:21;11.70;;;10.70;;
46589;SDS011;32313;48.722;9.362;2023-11-22T06:42:47;12.27;;;11.27;;
46589;SDS011;32313;48.722;9.362;2023-11-22T06:45:13;12.27;;;11.30;;
46589;SDS011;32313;48.722;9.362;2023-11-22T06:47:39;12.40;;;11.40;;
46589;SDS011;32313;48.722;9.362;2023-11-22T06:50:05;12.40;;;11.30;;
46589;SDS011;32313;48.722;9.362;2023-11-22T06:52:40;10.80;;;10.00;;
46589;SDS011;32313;48.722;9.362;2023-11-22T06:55:07;12.50;;;11.50;;
46589;SDS011;32313;48.722;9.362;2023-11-22T06:57:33;12.53;;;11.53;;
46589;SDS011;32313;48.722;9.362;2023-11-22T07:00:00;12.27;;;11.07;;
46589;SDS011;32313;48.722;9.362;2023-11-22T07:02:30;13.03;;;12.10;;
46589;SDS011;32313;48.722;9.362;2023-11-22T07:04:56;12.17;;;11.10;;
46589;SDS011;32313;48.722;9.362;2023-11-22T07:07:24;12.00;;;11.00;;
46589;SDS011;32313;48.722;9.362;2023-11-22T07:09:50;11.20;;;10.23;;
46589;SDS011;32313;48.722;9.362;2023-11-22T07:12:16;12.23;;;11.33;;
46589;SDS011;32313;48.722;9.362;2023-11-22T07:14:42;11.83;;;11.03;;
46589;SDS011;32313;48.722;9.362;2023-11-22T07:17:08;11.13;;;10.13;;
46589;SDS011;32313;48.722;9.362;2023-11-22T07:19:34;11.73;;;10.73;;
46589;SDS011;32313;48.722;9.362;2023-11-22T07:22:06;12.57;;;11.50;;
46589;SDS011;32313;48.722;9.362;2023-11-22T07:24:43;12.43;;;11.33;;
46589;SDS011;32313;48.722;9.362;2023-11-22T07:27:13;11.30;;;10.40;;
46589;SDS011;32313;48.722;9.362;2023-11-22T07:29:40;12.40;;;11.43;;
46589;SDS011;32313;48.722;9.362;2023-11-22T07:32:09;12.30;;;11.20;;
46589;SDS011;32313;48.722;9.362;2023-11-22T07:34:35;11.67;;;10.77;;
46589;SDS011;32313;48.722;9.362;2023-11-22T07:37:02;11.97;;;10.90;;
46589;SDS011;32313;48.722;9.362;2023-11-22T07:39:28;11.57;;;10.53;;
46589;SDS011;32313;48.722;9.362;2023-11-22T07:41:54;10.80;;;10.07;;
46589;SDS011;32313;48.722;9.362;2023-11-22T07:44:23;11.00;;;10.20;;
46589;SDS011;32313;48.722;9.362;2023-11-22T07:46:49;11.20;;;10.30;;
46589;SDS011;32313;48.722;9.362;2023-11-22T07:49:16;10.93;;;10.10;;
46589;SDS011;32313;48.722;9.362;2023-11-22T07:51:44;11.17;;;10.37;;
46589;SDS011;32313;48.722;9.362;2023-11-22T07:54:12;11.83;;;10.83;;
46589;SDS011;32313;48.722;9.362;2023-11-22T07:56:43;11.87;;;10.87;;
46589;SDS011;32313;48.722;9.362;2023-11-22T07:59:09;11.50;;;10.60;;
46589;SDS011;32313;48.722;9.362;2023-11-22T08:01:39;10.70;;;9.90;;
46589;SDS011;32313;48.722;9.362;2023-11-22T08:04:08;10.20;;;9.40;;
46589;SDS011;32313;48.722;9.362;2023-11-22T08:06:34;10.73;;;9.83;;
46589;SDS011;32313;48.722;9.362;2023-11-22T08:09:00;11.47;;;10.17;;
46589;SDS011;32313;48.722;9.362;2023-11-22T08:11:30;10.73;;;9.83;;
46589;SDS011;32313;48.722;9.362;2023-11-22T08:13:57;10.57;;;9.77;;
46589;SDS011;32313;48.722;9.362;2023-11-22T08:16:25;11.03;;;10.23;;
46589;SDS011;32313;48.722;9.362;2023-11-22T08:18:52;9.77;;;9.07;;
46589;SDS011;32313;48.722;9.362;2023-11-22T08:21:18;10.63;;;9.87;;
46589;SDS011;32313;48.722;9.362;2023-11-22T08:23:45;10.90;;;10.10;;
46589;SDS011;32313;48.722;9.362;2023-11-22T08:26:12;10.40;;;9.67;;
46589;SDS011;32313;48.722;9.362;2023-11-22T08:28:38;9.83;;;9.13;;
46589;SDS011;32313;48.722;9.362;2023-11-22T08:31:04;10.63;;;9.83;;
46589;SDS011;32313;48.722;9.362;2023-11-22T08:33:31;9.97;;;9.27;;
46589;SDS011;32313;48.722;9.362;2023-11-22T08:35:57;10.33;;;9.47;;
46589;SDS011;32313;48.722;9.362;2023-11-22T08:38:26;9.90;;;9.20;;
46589;SDS011;32313;48.722;9.362;2023-11-22T08:40:52;10.10;;;9.30;;
46589;SDS011;32313;48.722;9.362;2023-11-22T08:43:17;10.30;;;9.40;;
46589;SDS011;32313;48.722;9.362;2023-11-22T08:45:48;10.50;;;9.60;;
46589;SDS011;32313;48.722;9.362;2023-11-22T08:48:14;10.87;;;10.07;;
46589;SDS011;32313;48.722;9.362;2023-11-22T08:50:40;10.50;;;9.60;;
46589;SDS011;32313;48.722;9.362;2023-11-22T08:53:06;10.47;;;9.47;;
46589;SDS011;32313;48.722;9.362;2023-11-22T08:55:33;10.53;;;9.73;;
46589;SDS011;32313;48.722;9.362;2023-11-22T08:57:59;10.87;;;9.97;;
46589;SDS011;32313;48.722;9.362;2023-11-22T09:00:25;10.60;;;9.50;;
46589;SDS011;32313;48.722;9.362;2023-11-22T09:02:53;10.93;;;9.97;;
46589;SDS011;32313;48.722;9.362;2023-11-22T09:05:22;10.93;;;9.93;;
46589;SDS011;32313;48.722;9.362;2023-11-22T09:07:48;10.70;;;9.90;;
46589;SDS011;32313;48.722;9.362;2023-11-22T09:10:14;10.23;;;9.43;;
46589;SDS011;32313;48.722;9.362;2023-11-22T09:12:41;10.87;;;10.03;;
46589;SDS011;32313;48.722;9.362;2023-11-22T09:15:07;10.67;;;9.77;;
46589;SDS011;32313;48.722;9.362;2023-11-22T09:17:37;10.13;;;9.40;;
46589;SDS011;32313;48.722;9.362;2023-11-22T09:20:08;10.63;;;9.83;;
46589;SDS011;32313;48.722;9.362;2023-11-22T09:22:37;10.87;;;10.03;;
46589;SDS011;32313;48.722;9.362;2023-11-22T09:25:10;10.53;;;9.63;;
46589;SDS011;32313;48.722;9.362;2023-11-22T09:27:37;11.10;;;10.10;;
46589;SDS011;32313;48.722;9.362;2023-11-22T09:30:03;11.03;;;10.13;;
46589;SDS011;32313;48.722;9.362;2023-11-22T09:32:30;11.00;;;10.20;;
46589;SDS011;32313;48.722;9.362;2023-11-22T09:34:56;11.07;;;10.17;;
46589;SDS011;32313;48.722;9.362;2023-11-22T09:37:23;11.63;;;10.60;;
46589;SDS011;32313;48.722;9.362;2023-11-22T09:39:50;10.10;;;9.30;;
46589;SDS011;32313;48.722;9.362;2023-11-22T09:42:16;10.83;;;9.93;;
46589;SDS011;32313;48.722;9.362;2023-11-22T09:44:42;11.50;;;10.60;;
46589;SDS011;32313;48.722;9.362;2023-11-22T09:47:08;11.37;;;10.33;;
46589;SDS011;32313;48.722;9.362;2023-11-22T09:49:35;11.53;;;10.40;;
46589;SDS011;32313;48.722;9.362;2023-11-22T09:52:05;10.47;;;9.67;;
46589;SDS011;32313;48.722;9.362;2023-11-22T09:54:37;10.27;;;9.53;;
46589;SDS011;32313;48.722;9.362;2023-11-22T09:57:05;10.97;;;10.00;;
46589;SDS011;32313;48.722;9.362;2023-11-22T09:59:34;10.30;;;9.50;;
46589;SDS011;32313;48.722;9.362;2023-11-22T10:02:01;10.73;;;9.83;;
46589;SDS011;32313;48.722;9.362;2023-11-22T10:04:28;10.23;;;9.07;;
46589;SDS011;32313;48.722;9.362;2023-11-22T10:06:57;10.50;;;9.60;;
46589;SDS011;32313;48.722;9.362;2023-11-22T10:09:24;10.77;;;9.87;;
46589;SDS011;32313;48.722;9.362;2023-11-22T10:11:52;10.47;;;9.67;;
46589;SDS011;32313;48.722;9.362;2023-11-22T10:14:24;11.30;;;10.30;;
46589;SDS011;32313;48.722;9.362;2023-11-22T10:17:01;10.90;;;10.03;;
46589;SDS011;32313;48.722;9.362;2023-11-22T10:19:27;10.67;;;9.77;;
46589;SDS011;32313;48.722;9.362;2023-11-22T10:22:03;11.10;;;10.20;;
46589;SDS011;32313;48.722;9.362;2023-11-22T10:24:33;10.53;;;9.53;;
46589;SDS011;32313;48.722;9.362;2023-11-22T10:27:00;10.43;;;9.53;;
46589;SDS011;32313;48.722;9.362;2023-11-22T10:29:26;10.87;;;10.00;;
46589;SDS011;32313;48.722;9.362;2023-11-22T10:31:52;11.23;;;10.33;;
46589;SDS011;32313;48.722;9.362;2023-11-22T10:34:21;11.40;;;10.30;;
46589;SDS011;32313;48.722;9.362;2023-11-22T10:36:48;10.90;;;10.00;;
46589;SDS011;32313;48.722;9.362;2023-11-22T10:39:19;11.67;;;10.77;;
46589;SDS011;32313;48.722;9.362;2023-11-22T10:41:45;11.03;;;10.13;;
46589;SDS011;32313;48.722;9.362;2023-11-22T10:44:11;10.20;;;9.50;;
46589;SDS011;32313;48.722;9.362;2023-11-22T10:46:38;11.37;;;10.47;;
46589;SDS011;32313;48.722;9.362;2023-11-22T10:49:05;11.43;;;10.43;;
46589;SDS011;32313;48.722;9.362;2023-11-22T10:51:31;12.00;;;11.00;;
46589;SDS011;32313;48.722;9.362;2023-11-22T10:53:58;12.07;;;11.10;;
46589;SDS011;32313;48.722;9.362;2023-11-22T10:56:28;11.97;;;10.83;;
46589;SDS011;32313;48.722;9.362;2023-11-22T10:59:06;12.67;;;11.67;;
46589;SDS011;32313;48.722;9.362;2023-11-22T11:01:44;12.70;;;11.70;;
46589;SDS011;32313;48.722;9.362;2023-11-22T11:04:55;12.77;;;11.77;;
46589;SDS011;32313;48.722;9.362;2023-11-22T11:07:05;12.33;;;11.27;;
46589;SDS011;32313;48.722;9.362;2023-11-22T11:09:37;12.47;;;11.37;;
46589;SDS011;32313;48.722;9.362;2023-11-22T11:12:04;13.60;;;12.43;;
46589;SDS011;32313;48.722;9.362;2023-11-22T11:14:31;12.87;;;11.87;;
46589;SDS011;32313;48.722;9.362;2023-11-22T11:16:57;12.77;;;11.73;;
46589;SDS011;32313;48.722;9.362;2023-11-22T11:19:23;12.93;;;11.83;;
46589;SDS011;32313;48.722;9.362;2023-11-22T11:21:50;12.77;;;11.50;;
46589;SDS011;32313;48.722;9.362;2023-11-22T11:24:16;12.77;;;11.50;;
46589;SDS011;32313;48.722;9.362;2023-11-22T11:26:49;12.97;;;11.93;;
46589;SDS011;32313;48.722;9.362;2023-11-22T11:29:29;12.63;;;11.53;;
46589;SDS011;32313;48.722;9.362;2023-11-22T11:31:56;13.63;;;12.47;;
46589;SDS011;32313;48.722;9.362;2023-11-22T11:34:23;12.87;;;11.83;;
46589;SDS011;32313;48.722;9.362;2023-11-22T11:36:52;13.50;;;12.33;;
46589;SDS011;32313;48.722;9.362;2023-11-22T11:39:25;13.43;;;12.23;;
46589;SDS011;32313;48.722;9.362;2023-11-22T11:42:11;12.60;;;11.57;;
46589;SDS011;32313;48.722;9.362;2023-11-22T11:44:50;12.77;;;11.73;;
46589;SDS011;32313;48.722;9.362;2023-11-22T11:47:22;12.93;;;11.77;;
46589;SDS011;32313;48.722;9.362;2023-11-22T11:49:49;13.30;;;12.30;;
46589;SDS011;32313;48.722;9.362;2023-11-22T11:52:17;11.93;;;10.87;;
46589;SDS011;32313;48.722;9.362;2023-11-22T11:54:44;13.77;;;12.67;;
46589;SDS011;32313;48.722;9.362;2023-11-22T11:57:09;13.53;;;12.23;;
46589;SDS011;32313;48.722;9.362;2023-11-22T11:59:35;13.20;;;11.87;;
46589;SDS011;32313;48.722;9.362;2023-11-22T12:02:01;13.17;;;11.97;;
46589;SDS011;32313;48.722;9.362;2023-11-22T12:04:30;13.50;;;12.40;;
46589;SDS011;32313;48.722;9.362;2023-11-22T12:06:57;13.50;;;12.30;;
46589;SDS011;32313;48.722;9.362;2023-11-22T12:09:23;13.83;;;12.53;;
46589;SDS011;32313;48.722;9.362;2023-11-22T12:11:54;13.80;;;12.60;;
46589;SDS011;32313;48.722;9.362;2023-11-22T12:14:20;13.37;;;12.27;;
46589;SDS011;32313;48.722;9.362;2023-11-22T12:16:50;12.33;;;11.33;;
46589;SDS011;32313;48.722;9.362;2023-11-22T12:19:26;13.10;;;12.03;;
46589;SDS011;32313;48.722;9.362;2023-11-22T12:21:56;12.63;;;11.53;;
46589;SDS011;32313;48.722;9.362;2023-11-22T12:24:22;11.90;;;10.93;;
46589;SDS011;32313;48.722;9.362;2023-11-22T12:26:49;13.47;;;12.27;;
46589;SDS011;32313;48.722;9.362;2023-11-22T12:29:17;12.70;;;11.70;;
46589;SDS011;32313;48.722;9.362;2023-11-22T12:31:48;13.97;;;12.70;;
46589;SDS011;32313;48.722;9.362;2023-11-22T12:34:22;12.83;;;11.73;;
46589;SDS011;32313;48.722;9.362;2023-11-22T12:36:50;12.10;;;11.10;;
46589;SDS011;32313;48.722;9.362;2023-11-22T12:39:16;12.47;;;11.40;;
46589;SDS011;32313;48.722;9.362;2023-11-22T12:41:49;13.40;;;12.10;;
46589;SDS011;32313;48.722;9.362;2023-11-22T12:44:16;14.57;;;13.20;;
46589;SDS011;32313;48.722;9.362;2023-11-22T12:46:46;12.00;;;11.10;;
46589;SDS011;32313;48.722;9.362;2023-11-22T12:49:28;12.07;;;11.17;;
46589;SDS011;32313;48.722;9.362;2023-11-22T12:51:54;11.97;;;11.00;;
46589;SDS011;32313;48.722;9.362;2023-11-22T12:54:22;11.93;;;11.00;;
46589;SDS011;32313;48.722;9.362;2023-11-22T12:56:51;11.13;;;10.23;;
46589;SDS011;32313;48.722;9.362;2023-11-22T12:59:23;12.07;;;11.07;;
46589;SDS011;32313;48.722;9.362;2023-11-22T13:01:49;11.50;;;10.60;;
46589;SDS011;32313;48.722;9.362;2023-11-22T13:04:17;11.87;;;10.97;;
46589;SDS011;32313;48.722;9.362;2023-11-22T13:06:43;12.13;;;11.20;;
46589;SDS011;32313;48.722;9.362;2023-11-22T13:09:09;11.37;;;10.10;;
46589;SDS011;32313;48.722;9.362;2023-11-22T13:11:42;12.10;;;11.00;;
46589;SDS011;32313;48.722;9.362;2023-11-22T13:14:11;12.37;;;11.37;;
46589;SDS011;32313;48.722;9.362;2023-11-22T13:16:41;11.07;;;10.17;;
46589;SDS011;32313;48.722;9.362;2023-11-22T13:19:14;11.90;;;10.90;;
46589;SDS011;32313;48.722;9.362;2023-11-22T13:21:39;12.10;;;11.03;;
46589;SDS011;32313;48.722;9.362;2023-11-22T13:24:06;11.20;;;10.20;;
46589;SDS011;32313;48.722;9.362;2023-11-22T13:26:32;11.47;;;10.57;;
46589;SDS011;32313;48.722;9.362;2023-11-22T13:28:59;11.47;;;10.50;;
46589;SDS011;32313;48.722;9.362;2023-11-22T13:31:25;10.70;;;9.80;;
46589;SDS011;32313;48.722;9.362;2023-11-22T13:33:51;11.27;;;10.27;;
46589;SDS011;32313;48.722;9.362;2023-11-22T13:36:17;11.60;;;10.60;;
46589;SDS011;32313;48.722;9.362;2023-11-22T13:38:42;11.07;;;10.17;;
46589;SDS011;32313;48.722;9.362;2023-11-22T13:41:08;11.33;;;10.33;;
46589;SDS011;32313;48.722;9.362;2023-11-22T13:43:34;10.83;;;9.93;;
46589;SDS011;32313;48.722;9.362;2023-11-22T13:46:00;11.20;;;10.30;;
46589;SDS011;32313;48.722;9.362;2023-11-22T13:48:26;10.43;;;9.43;;
46589;SDS011;32313;48.722;9.362;2023-11-22T13:50:52;11.53;;;10.70;;
46589;SDS011;32313;48.722;9.362;2023-11-22T13:53:17;9.63;;;8.93;;
46589;SDS011;32313;48.722;9.362;2023-11-22T13:55:47;10.53;;;9.73;;
46589;SDS011;32313;48.722;9.362;2023-11-22T13:58:15;10.13;;;9.33;;
46589;SDS011;32313;48.722;9.362;2023-11-22T14:00:41;10.97;;;10.07;;
46589;SDS011;32313;48.722;9.362;2023-11-22T14:03:22;11.43;;;10.47;;
46589;SDS011;32313;48.722;9.362;2023-11-22T14:05:48;11.20;;;10.40;;
46589;SDS011;32313;48.722;9.362;2023-11-22T14:08:14;11.50;;;10.60;;
46589;SDS011;32313;48.722;9.362;2023-11-22T14:10:40;11.80;;;10.90;;
46589;SDS011;32313;48.722;9.362;2023-11-22T14:13:06;11.70;;;10.70;;
46589;SDS011;32313;48.722;9.362;2023-11-22T14:15:33;11.17;;;10.17;;
46589;SDS011;32313;48.722;9.362;2023-11-22T14:18:00;11.87;;;10.97;;
46589;SDS011;32313;48.722;9.362;2023-11-22T14:20:26;11.20;;;10.30;;
46589;SDS011;32313;48.722;9.362;2023-11-22T14:22:51;11.60;;;10.53;;